Elmer City, Washington
Current Conditions -  °F | °C
As of 2:53 AM on Thursday 23 Oct 2014 (Local Time) from KOMK Reporting Station
Scattered Clouds Scattered Clouds  
Wind Chill: 55°   Ceiling: Unl
Heat Index: 55°   Visibility: 10mi
Dew Point: 47°   Wind: 10mph
Humidity: 74%   Direction: 170°S
Pressure: 29.65"   Gusts: NA
Location:  48°N, 118.95°W
Report Text: KOMK 230953Z AUTO 17009KT 10SM FEW090 SCT110 13/08 A2965 RMK AO2 RAB0854E36 SLP042 P0000 T01280083
Loading
Personal Weather Stations






























Interactive Weather Map New forecast layout! Learn more

10-Day Weather Forecast

Advertisements
Track Severe Weather on mobile